createdAt,value
2018-05-25T00:03:11.212Z,4.83
2018-05-25T00:05:54.082Z,5.23
2018-05-25T00:08:22.636Z,4.73
2018-05-25T00:10:50.875Z,4.33
2018-05-25T00:13:19.241Z,4.87
2018-05-25T00:15:47.476Z,4.83
2018-05-25T00:18:15.875Z,5.50
2018-05-25T00:20:44.190Z,4.77
2018-05-25T00:23:12.490Z,4.60
2018-05-25T00:25:41.657Z,4.97
2018-05-25T00:28:10.046Z,4.50
2018-05-25T00:30:39.244Z,4.33
2018-05-25T00:33:08.382Z,4.90
2018-05-25T00:35:36.669Z,4.70
2018-05-25T00:38:04.951Z,4.87
2018-05-25T00:40:33.910Z,5.20
2018-05-25T00:43:02.915Z,4.07
2018-05-25T00:45:31.443Z,5.60
2018-05-25T00:50:45.365Z,4.80
2018-05-25T00:53:13.743Z,5.10
2018-05-25T00:58:24.495Z,4.57
2018-05-25T01:00:53.505Z,4.90
2018-05-25T01:03:21.854Z,5.17
2018-05-25T01:05:51.026Z,5.23
2018-05-25T01:08:20.961Z,5.07
2018-05-25T01:10:49.974Z,4.40
2018-05-25T01:13:18.423Z,4.73
2018-05-25T01:15:46.866Z,4.77
2018-05-25T01:18:15.083Z,4.50
2018-05-25T01:20:43.394Z,4.00
2018-05-25T01:23:11.937Z,4.27
2018-05-25T01:25:54.950Z,4.50
2018-05-25T01:28:23.899Z,4.27
2018-05-25T01:30:52.149Z,5.37
2018-05-25T01:33:21.191Z,4.10
2018-05-25T01:35:49.485Z,5.10
2018-05-25T01:38:19.304Z,5.40
2018-05-25T01:40:47.587Z,5.97
2018-05-25T01:43:15.911Z,5.63
2018-05-25T01:45:44.263Z,5.20
2018-05-25T01:48:13.432Z,6.10
2018-05-25T01:50:42.406Z,4.33
2018-05-25T01:53:11.566Z,4.63
2018-05-25T01:55:39.901Z,4.50
2018-05-25T01:58:08.165Z,4.13
2018-05-25T02:00:36.816Z,4.33
2018-05-25T02:03:05.094Z,4.07
2018-05-25T02:05:53.893Z,4.47
2018-05-25T02:08:22.141Z,4.20
2018-05-25T02:10:50.449Z,4.37
2018-05-25T02:13:19.593Z,4.53
2018-05-25T02:15:47.915Z,4.97
2018-05-25T02:18:16.358Z,4.13
2018-05-25T02:20:44.624Z,4.53
2018-05-25T02:23:12.917Z,4.87
2018-05-25T02:25:41.314Z,4.73
2018-05-25T02:28:11.368Z,4.30
2018-05-25T02:30:40.466Z,5.40
2018-05-25T02:33:09.881Z,4.57
2018-05-25T02:35:38.172Z,4.30
2018-05-25T02:38:06.577Z,4.43
2018-05-25T02:40:34.876Z,4.83
2018-05-25T02:43:04.024Z,4.47
2018-05-25T02:45:32.199Z,5.10
2018-05-25T02:51:02.053Z,4.70
2018-05-25T02:53:30.327Z,4.97
2018-05-25T02:55:58.551Z,4.80
2018-05-25T02:58:26.967Z,4.00
2018-05-25T03:00:55.457Z,5.60
2018-05-25T03:03:23.935Z,4.67
2018-05-25T03:05:53.034Z,5.10
2018-05-25T03:08:21.385Z,4.20
2018-05-25T03:10:49.784Z,4.13
2018-05-25T03:13:18.262Z,4.93
2018-05-25T03:15:46.627Z,5.37
2018-05-25T03:18:14.844Z,5.00
2018-05-25T03:20:55.909Z,4.33
2018-05-25T03:23:24.969Z,4.97
2018-05-25T03:25:53.234Z,4.23
2018-05-25T03:28:21.450Z,4.73
2018-05-25T03:30:56.485Z,4.80
2018-05-25T03:33:25.631Z,4.30
2018-05-25T03:35:54.795Z,4.30
2018-05-25T03:38:23.880Z,4.67
2018-05-25T03:40:52.261Z,4.57
2018-05-25T03:43:20.942Z,4.63
2018-05-25T03:45:49.109Z,4.93
2018-05-25T03:48:18.534Z,4.60
2018-05-25T03:50:47.740Z,4.83
2018-05-25T03:53:16.916Z,5.10
2018-05-25T03:55:45.101Z,4.30
2018-05-25T04:01:32.242Z,4.70
2018-05-25T04:04:01.387Z,4.27
2018-05-25T04:06:29.681Z,7.00
2018-05-25T04:08:57.986Z,8.10
2018-05-25T04:11:27.510Z,8.23
2018-05-25T04:13:56.112Z,7.20
2018-05-25T04:16:24.510Z,4.40
2018-05-25T04:18:54.609Z,4.87
2018-05-25T04:21:23.118Z,5.20
2018-05-25T04:23:51.406Z,6.93
2018-05-25T04:29:20.181Z,4.47
2018-05-25T04:31:54.425Z,4.17
2018-05-25T04:34:22.745Z,5.27
2018-05-25T04:36:51.009Z,4.80
2018-05-25T04:39:19.954Z,9.83
2018-05-25T04:41:54.919Z,6.03
2018-05-25T04:44:23.870Z,5.30
2018-05-25T04:46:52.281Z,5.20
2018-05-25T04:49:20.517Z,4.87
2018-05-25T04:51:48.717Z,5.40
2018-05-25T04:54:17.766Z,6.10
2018-05-25T04:56:45.999Z,5.70
2018-05-25T04:59:14.604Z,4.97
2018-05-25T05:01:44.703Z,7.60
2018-05-25T05:04:12.916Z,6.03
2018-05-25T05:06:41.223Z,6.20
2018-05-25T05:09:09.411Z,5.87
2018-05-25T05:11:55.239Z,6.77
2018-05-25T05:14:24.222Z,6.73
2018-05-25T05:16:53.292Z,6.00
2018-05-25T05:19:22.377Z,7.67
2018-05-25T05:21:50.562Z,6.60
2018-05-25T05:24:19.275Z,6.87
2018-05-25T05:26:47.485Z,5.90
2018-05-25T05:29:15.687Z,6.60
2018-05-25T05:31:45.400Z,7.50
2018-05-25T05:34:15.081Z,7.37
2018-05-25T05:36:56.458Z,8.37
2018-05-25T05:39:54.486Z,8.10
2018-05-25T05:42:23.490Z,8.17
2018-05-25T05:44:52.450Z,8.43
2018-05-25T05:47:22.257Z,7.30
2018-05-25T05:49:50.430Z,8.00
2018-05-25T05:52:18.676Z,6.60
2018-05-25T05:54:46.871Z,8.03
2018-05-25T05:57:15.098Z,7.57
2018-05-25T05:59:43.282Z,7.30
2018-05-25T06:05:12.155Z,6.90
2018-05-25T06:07:54.554Z,6.87
2018-05-25T06:10:22.890Z,6.73
2018-05-25T06:12:54.623Z,6.60
2018-05-25T06:15:22.838Z,7.17
2018-05-25T06:17:56.974Z,9.10
2018-05-25T06:20:53.595Z,6.60
2018-05-25T06:23:21.817Z,7.17
2018-05-25T06:25:57.329Z,7.87
2018-05-25T06:28:53.090Z,8.17
2018-05-25T06:31:38.667Z,8.33
2018-05-25T06:34:06.884Z,7.30
2018-05-25T06:36:55.353Z,6.33
2018-05-25T06:39:53.598Z,9.30
2018-05-25T06:45:22.688Z,7.70
2018-05-25T06:47:50.901Z,6.60
2018-05-25T06:53:19.359Z,7.43
2018-05-25T06:55:54.653Z,7.93
2018-05-25T06:58:53.419Z,7.60
2018-05-25T07:07:20.438Z,7.40
2018-05-25T07:09:54.793Z,6.60
2018-05-25T07:12:53.551Z,6.57
2018-05-25T07:15:21.740Z,7.97
2018-05-25T07:17:50.714Z,6.47
2018-05-25T07:23:19.159Z,7.03
2018-05-25T07:25:54.434Z,7.10
2018-05-25T07:28:53.179Z,7.00
2018-05-25T07:31:21.426Z,7.50
2018-05-25T07:33:56.034Z,6.27
2018-05-25T07:36:54.581Z,6.37
2018-05-25T07:39:22.906Z,7.37
2018-05-25T07:41:55.486Z,7.40
2018-05-25T07:44:25.298Z,6.63
2018-05-25T07:46:55.106Z,6.33
2018-05-25T07:49:23.286Z,7.30
2018-05-25T07:51:53.102Z,7.40
2018-05-25T07:54:21.305Z,7.10
2018-05-25T07:56:49.544Z,6.60
2018-05-25T07:59:18.519Z,6.90
2018-05-25T08:01:46.905Z,7.47
2018-05-25T08:04:15.093Z,6.23
2018-05-25T08:06:44.051Z,5.67
2018-05-25T08:15:13.899Z,7.30
2018-05-25T08:17:43.487Z,6.07
2018-05-25T08:20:11.739Z,5.63
2018-05-25T08:22:40.687Z,6.50
2018-05-25T08:25:08.865Z,7.27
2018-05-25T08:27:37.211Z,5.50
2018-05-25T08:30:05.428Z,6.07
2018-05-25T08:32:33.693Z,6.60
2018-05-25T08:35:02.827Z,6.40
2018-05-25T08:38:02.549Z,6.83
2018-05-25T08:40:54.204Z,5.97
2018-05-25T08:43:22.391Z,5.07
2018-05-25T08:45:50.643Z,5.60
2018-05-25T08:48:18.839Z,5.30
2018-05-25T08:50:47.063Z,5.97
2018-05-25T08:53:15.277Z,5.13
2018-05-25T08:55:43.939Z,4.40
2018-05-25T08:58:12.167Z,4.40
2018-05-25T09:00:40.401Z,4.30
2018-05-25T09:03:08.639Z,5.10
2018-05-25T09:05:54.598Z,4.60
2018-05-25T09:08:22.973Z,4.73
2018-05-25T09:10:51.311Z,3.80
2018-05-25T09:13:20.228Z,4.90
2018-05-25T09:15:48.451Z,5.00
2018-05-25T09:18:17.435Z,4.40
2018-05-25T09:20:46.452Z,3.90
2018-05-25T09:23:14.787Z,5.17
2018-05-25T09:25:43.071Z,5.00
2018-05-25T09:28:12.027Z,4.60
2018-05-25T09:30:54.692Z,5.00
2018-05-25T09:33:55.469Z,4.63
2018-05-25T09:36:23.729Z,4.00
2018-05-25T09:38:52.671Z,4.90
2018-05-25T09:41:20.942Z,4.53
2018-05-25T09:43:49.174Z,4.00
2018-05-25T09:46:17.461Z,5.60
2018-05-25T09:48:45.684Z,4.87
2018-05-25T09:54:15.627Z,4.93
2018-05-25T09:57:01.629Z,3.50
2018-05-25T09:59:29.890Z,3.63
2018-05-25T10:01:59.318Z,4.07
2018-05-25T10:04:28.259Z,3.90
2018-05-25T10:06:56.640Z,4.47
2018-05-25T10:09:24.887Z,3.80
2018-05-25T10:11:54.895Z,4.13
2018-05-25T10:14:23.106Z,4.00
2018-05-25T10:16:51.323Z,4.10
2018-05-25T10:19:20.774Z,4.60
2018-05-25T10:21:49.289Z,4.60
2018-05-25T10:24:18.798Z,3.87
2018-05-25T10:26:55.175Z,3.30
2018-05-25T10:29:53.989Z,3.70
2018-05-25T10:35:22.478Z,4.33
2018-05-25T10:37:50.648Z,4.10
2018-05-25T10:46:01.401Z,4.40
2018-05-25T10:51:30.261Z,4.90
2018-05-25T10:53:58.490Z,4.40
2018-05-25T10:56:53.529Z,3.93
2018-05-25T11:02:53.378Z,4.00
2018-05-25T11:05:21.619Z,4.17
2018-05-25T11:07:51.389Z,4.33
2018-05-25T11:19:21.873Z,5.00
2018-05-25T11:21:56.085Z,4.70
2018-05-25T11:24:54.424Z,4.10
2018-05-25T11:27:24.410Z,5.10
2018-05-25T11:29:52.657Z,5.13
2018-05-25T11:38:39.026Z,5.10
2018-05-25T11:41:07.258Z,4.80
2018-05-25T11:43:55.357Z,4.40
2018-05-25T11:46:53.637Z,4.47
2018-05-25T11:58:38.047Z,3.43
2018-05-25T12:01:07.033Z,4.30
2018-05-25T12:03:54.665Z,4.47
2018-05-25T12:09:23.126Z,4.40
2018-05-25T12:11:57.794Z,4.97
2018-05-25T12:14:53.294Z,4.03
2018-05-25T12:23:55.818Z,4.30
2018-05-25T12:26:54.233Z,4.20
2018-05-25T12:29:23.227Z,4.87
2018-05-25T12:34:56.788Z,4.60
2018-05-25T12:37:25.046Z,4.20
2018-05-25T12:39:56.270Z,4.83
2018-05-25T12:42:54.624Z,4.93
2018-05-25T12:48:58.410Z,4.07
2018-05-25T13:02:55.745Z,3.87
2018-05-25T13:05:24.013Z,3.90
2018-05-25T13:07:55.651Z,3.40
2018-05-25T13:10:54.163Z,3.53
2018-05-25T13:13:22.342Z,3.83
2018-05-25T13:18:54.463Z,3.87
2018-05-25T13:21:53.340Z,3.80
2018-05-25T13:36:53.889Z,3.40
2018-05-25T13:42:53.995Z,3.37
2018-05-25T13:45:43.671Z,3.60
2018-05-25T14:03:42.714Z,3.20
2018-05-25T14:27:27.163Z,4.03
2018-05-25T14:29:55.351Z,4.00
2018-05-25T14:32:54.492Z,3.80
2018-05-25T14:38:53.322Z,4.10
2018-05-25T14:41:21.517Z,4.37
2018-05-25T14:44:03.773Z,3.60
2018-05-25T14:46:33.986Z,4.10
2018-05-25T15:04:57.103Z,3.80
2018-05-25T15:10:53.902Z,4.00
2018-05-25T15:16:48.542Z,3.30
2018-05-25T15:46:48.840Z,3.23
2018-05-25T16:13:39.138Z,3.60
2018-05-25T16:20:55.983Z,3.80
2018-05-25T16:29:55.250Z,3.63
2018-05-25T16:35:53.815Z,4.00
2018-05-25T16:41:23.242Z,3.63
2018-05-25T16:43:56.214Z,3.30
2018-05-25T16:46:54.899Z,3.30
2018-05-25T16:49:23.122Z,3.30
2018-05-25T17:00:56.440Z,3.73
2018-05-25T17:03:53.451Z,3.77
2018-05-25T17:21:54.770Z,4.17
2018-05-25T17:24:54.152Z,3.87
2018-05-25T17:27:22.422Z,4.20
2018-05-25T17:29:56.796Z,4.30
2018-05-25T17:32:53.564Z,4.30
2018-05-25T17:38:22.373Z,4.47
2018-05-25T17:42:00.843Z,4.40
2018-05-25T17:44:55.979Z,4.40
2018-05-25T17:47:53.942Z,4.40
2018-05-25T17:59:53.603Z,4.50
2018-05-25T18:14:53.603Z,4.10
2018-05-25T18:23:22.694Z,5.43
2018-05-25T18:28:55.246Z,5.83
2018-05-25T18:31:53.973Z,4.87
2018-05-25T18:37:23.299Z,4.20
2018-05-25T18:39:51.570Z,4.30
2018-05-25T18:45:20.981Z,4.30
2018-05-25T18:47:49.157Z,4.97
2018-05-25T18:50:17.438Z,4.80
2018-05-25T18:52:56.376Z,4.57
2018-05-25T18:55:24.602Z,5.07
2018-05-25T18:57:52.830Z,3.87
2018-05-25T19:00:21.919Z,5.20
2018-05-25T19:02:56.325Z,4.40
2018-05-25T19:05:24.560Z,5.00
2018-05-25T19:07:52.754Z,4.90
2018-05-25T19:10:21.186Z,5.73
2018-05-25T19:12:50.281Z,6.80
2018-05-25T19:15:19.244Z,6.67
2018-05-25T19:17:47.417Z,6.53
2018-05-25T19:23:16.021Z,5.70
2018-05-25T19:25:57.032Z,7.53
2018-05-25T19:28:55.040Z,6.90
2018-05-25T19:31:23.619Z,5.63
2018-05-25T19:33:57.938Z,5.07
2018-05-25T19:36:26.158Z,4.90
2018-05-25T19:38:55.349Z,6.63
2018-05-25T19:41:53.757Z,5.77
2018-05-25T19:44:22.782Z,4.87
2018-05-25T19:46:51.099Z,5.27
2018-05-25T19:49:19.370Z,7.87
2018-05-25T19:51:47.558Z,7.67
2018-05-25T19:54:16.547Z,7.03
2018-05-25T19:56:55.146Z,5.80
2018-05-25T19:59:23.425Z,6.57
2018-05-25T20:01:55.152Z,5.80
2018-05-25T20:04:53.726Z,5.80
2018-05-25T20:07:21.906Z,5.83
2018-05-25T20:09:56.554Z,5.20
2018-05-25T20:12:24.855Z,6.07
2018-05-25T20:14:55.285Z,5.23
2018-05-25T20:17:23.544Z,5.37
2018-05-25T20:19:51.731Z,5.77
2018-05-25T20:22:20.002Z,6.07
2018-05-25T20:24:48.190Z,4.93
2018-05-25T20:27:17.189Z,4.60
2018-05-25T20:29:46.261Z,5.57
2018-05-25T20:35:15.999Z,5.90
2018-05-25T20:37:45.050Z,5.13
2018-05-25T20:40:13.276Z,5.30
2018-05-25T20:42:42.226Z,4.87
2018-05-25T20:45:10.486Z,5.00
2018-05-25T20:47:38.767Z,4.93
2018-05-25T20:50:06.959Z,4.90
2018-05-25T20:52:35.257Z,5.20
2018-05-25T20:55:03.682Z,5.77
2018-05-25T20:57:31.858Z,5.00
2018-05-25T21:00:00.299Z,5.40
2018-05-25T21:02:29.287Z,5.20
2018-05-25T21:04:58.241Z,5.30
2018-05-25T21:07:26.579Z,4.53
2018-05-25T21:09:55.525Z,4.83
2018-05-25T21:12:23.771Z,5.37
2018-05-25T21:14:57.226Z,5.23
2018-05-25T21:17:26.314Z,4.90
2018-05-25T21:19:56.028Z,5.20
2018-05-25T21:22:27.171Z,4.90
2018-05-25T21:24:56.143Z,5.57
2018-05-25T21:27:24.358Z,4.67
2018-05-25T21:29:56.799Z,5.53
2018-05-25T21:32:25.898Z,6.00
2018-05-25T21:34:54.086Z,5.40
2018-05-25T21:43:54.375Z,5.27
2018-05-25T21:46:22.553Z,5.40
2018-05-25T21:48:50.765Z,5.70
2018-05-25T21:51:18.950Z,8.23
2018-05-25T21:53:47.218Z,5.10
2018-05-25T21:56:15.451Z,5.60
2018-05-25T21:58:56.575Z,5.47
2018-05-25T22:01:24.813Z,5.53
2018-05-25T22:03:53.300Z,5.50
2018-05-25T22:09:22.031Z,5.00
2018-05-25T22:11:56.322Z,7.70
2018-05-25T22:17:08.387Z,6.00
2018-05-25T22:19:37.365Z,5.77
2018-05-25T22:22:06.354Z,6.83
2018-05-25T22:24:36.066Z,5.93
2018-05-25T22:27:04.313Z,5.50
2018-05-25T22:29:32.526Z,6.77
2018-05-25T22:32:00.793Z,6.13
2018-05-25T22:34:29.013Z,5.80
2018-05-25T22:36:57.308Z,6.30
2018-05-25T22:39:25.518Z,6.00
2018-05-25T22:41:56.761Z,5.50
2018-05-25T22:44:42.741Z,5.33
2018-05-25T22:47:30.994Z,5.87
2018-05-25T22:50:17.893Z,5.83
2018-05-25T22:52:50.931Z,5.60
2018-05-25T22:55:19.170Z,5.80
2018-05-25T22:57:55.633Z,5.07
2018-05-25T23:00:23.814Z,6.30
2018-05-25T23:02:58.002Z,6.20
2018-05-25T23:05:54.631Z,5.20
2018-05-25T23:08:22.853Z,5.10
2018-05-25T23:10:51.797Z,5.80
2018-05-25T23:19:21.390Z,6.27
2018-05-25T23:21:50.375Z,6.10
2018-05-25T23:24:18.637Z,5.40
2018-05-25T23:26:46.927Z,5.20
2018-05-25T23:29:15.117Z,6.20
2018-05-25T23:31:44.072Z,5.90
2018-05-25T23:34:12.298Z,6.03
2018-05-25T23:36:40.483Z,6.07
2018-05-25T23:39:08.719Z,6.47
2018-05-25T23:41:36.989Z,6.23
2018-05-25T23:50:07.866Z,6.57
2018-05-25T23:52:36.072Z,5.77
2018-05-25T23:55:04.268Z,6.40
2018-05-25T23:57:32.487Z,6.60
